BKB6 CYKA-KMYL
Flight info
| Callsign | BKB6 |
|---|---|
| Flight time | N/A |
| Altitude | 31000 |
| Route | KEBRA1 KEBRA DCT ITBID DCT SKA DCT MQG DCT DNJ |
| Aircraft | RJ1H/M-SDFGIRWY/LB1 |
Departure
| Time | N/A |
|---|---|
| Airport | Kamloops John Moose Fulton Field Regional Airport (CYKA) |
Arrival
| Time | 2026-05-03 20:42 |
|---|---|
| Airport | McCall Municipal Airport (KMYL) |
| Time | Latitude | Longitude | Altitude | Speed | Heading |
|---|---|---|---|---|---|
| 2026-05-03 20:15 | 46.81529 | -117.14434 | 31030 ft | 420 kts | 155° |
| 2026-05-03 20:15 | 46.76175 | -117.11002 | 31029 ft | 420 kts | 155° |
| 2026-05-03 20:16 | 46.70811 | -117.07605 | 31028 ft | 420 kts | 155° |
| 2026-05-03 20:16 | 46.65490 | -117.04198 | 31030 ft | 420 kts | 155° |
| 2026-05-03 20:17 | 46.60134 | -117.00798 | 31016 ft | 419 kts | 155° |
| 2026-05-03 20:17 | 46.54791 | -116.97412 | 31003 ft | 419 kts | 155° |
| 2026-05-03 20:18 | 46.49436 | -116.94047 | 30987 ft | 419 kts | 155° |
| 2026-05-03 20:18 | 46.44094 | -116.90660 | 30971 ft | 418 kts | 155° |
| 2026-05-03 20:19 | 46.38741 | -116.87334 | 30980 ft | 418 kts | 158° |
| 2026-05-03 20:19 | 46.33216 | -116.84655 | 30978 ft | 419 kts | 162° |
| 2026-05-03 20:20 | 46.27646 | -116.82327 | 30986 ft | 419 kts | 163° |
| 2026-05-03 20:20 | 46.22025 | -116.80060 | 30981 ft | 420 kts | 163° |
| 2026-05-03 20:21 | 46.16420 | -116.77725 | 30975 ft | 419 kts | 163° |
| 2026-05-03 20:21 | 46.10819 | -116.75366 | 30972 ft | 419 kts | 162° |
| 2026-05-03 20:22 | 46.05215 | -116.73008 | 30959 ft | 417 kts | 162° |
| 2026-05-03 20:22 | 45.99650 | -116.70706 | 30971 ft | 416 kts | 162° |
| 2026-05-03 20:23 | 45.94084 | -116.68413 | 30968 ft | 416 kts | 162° |
| 2026-05-03 20:23 | 45.88558 | -116.66123 | 30971 ft | 416 kts | 162° |
| 2026-05-03 20:24 | 45.83000 | -116.63807 | 30970 ft | 415 kts | 162° |
| 2026-05-03 20:24 | 45.77451 | -116.61492 | 30992 ft | 415 kts | 162° |
| 2026-05-03 20:25 | 45.71885 | -116.59217 | 30983 ft | 416 kts | 162° |
| 2026-05-03 20:25 | 45.66328 | -116.56946 | 30983 ft | 415 kts | 162° |
| 2026-05-03 20:26 | 45.60777 | -116.54647 | 30988 ft | 415 kts | 162° |
| 2026-05-03 20:26 | 45.55261 | -116.52388 | 30974 ft | 414 kts | 162° |
| 2026-05-03 20:27 | 45.49712 | -116.50108 | 30984 ft | 415 kts | 162° |
| 2026-05-03 20:27 | 45.44148 | -116.47847 | 30900 ft | 411 kts | 162° |
| 2026-05-03 20:27 | 45.41391 | -116.46701 | 30064 ft | 414 kts | 161° |
| 2026-05-03 20:28 | 45.38626 | -116.45536 | 29166 ft | 416 kts | 162° |
| 2026-05-03 20:28 | 45.35843 | -116.44390 | 28260 ft | 417 kts | 162° |
| 2026-05-03 20:28 | 45.33046 | -116.43242 | 27323 ft | 419 kts | 162° |
| 2026-05-03 20:28 | 45.30232 | -116.42112 | 26472 ft | 420 kts | 162° |
| 2026-05-03 20:29 | 45.27440 | -116.40989 | 25861 ft | 414 kts | 162° |
| 2026-05-03 20:29 | 45.24688 | -116.39885 | 25189 ft | 409 kts | 163° |
| 2026-05-03 20:29 | 45.21955 | -116.38793 | 24562 ft | 405 kts | 161° |
| 2026-05-03 20:29 | 45.19264 | -116.37681 | 23939 ft | 401 kts | 162° |
| 2026-05-03 20:30 | 45.16590 | -116.36594 | 23270 ft | 397 kts | 161° |
| 2026-05-03 20:30 | 45.13947 | -116.35515 | 22544 ft | 394 kts | 162° |
| 2026-05-03 20:30 | 45.11349 | -116.34461 | 21817 ft | 392 kts | 162° |
| 2026-05-03 20:30 | 45.08742 | -116.33392 | 21139 ft | 388 kts | 163° |
| 2026-05-03 20:31 | 45.06154 | -116.32355 | 20456 ft | 385 kts | 163° |
| 2026-05-03 20:31 | 45.03589 | -116.31324 | 19852 ft | 381 kts | 163° |
| 2026-05-03 20:31 | 45.01040 | -116.30316 | 19116 ft | 379 kts | 165° |
| 2026-05-03 20:31 | 44.98515 | -116.29318 | 18514 ft | 374 kts | 164° |
| 2026-05-03 20:32 | 44.96020 | -116.28289 | 17762 ft | 373 kts | 163° |
| 2026-05-03 20:32 | 44.93548 | -116.27264 | 17132 ft | 367 kts | 164° |
| 2026-05-03 20:32 | 44.91094 | -116.26278 | 16427 ft | 366 kts | 165° |
| 2026-05-03 20:32 | 44.88649 | -116.25323 | 15732 ft | 362 kts | 164° |
| 2026-05-03 20:33 | 44.86233 | -116.24371 | 15201 ft | 358 kts | 164° |
| 2026-05-03 20:33 | 44.83851 | -116.23427 | 14582 ft | 353 kts | 164° |
| 2026-05-03 20:33 | 44.81502 | -116.22495 | 13978 ft | 349 kts | 164° |
| 2026-05-03 20:33 | 44.79167 | -116.21571 | 13310 ft | 346 kts | 164° |
| 2026-05-03 20:34 | 44.76902 | -116.20611 | 12668 ft | 342 kts | 159° |
| 2026-05-03 20:34 | 44.74755 | -116.19215 | 12020 ft | 339 kts | 151° |
| 2026-05-03 20:34 | 44.72700 | -116.17616 | 11385 ft | 337 kts | 149° |
| 2026-05-03 20:34 | 44.70617 | -116.16066 | 10759 ft | 330 kts | 151° |
| 2026-05-03 20:35 | 44.68672 | -116.14564 | 10588 ft | 316 kts | 150° |
| 2026-05-03 20:35 | 44.66778 | -116.13143 | 10467 ft | 300 kts | 151° |
| 2026-05-03 20:35 | 44.65087 | -116.11770 | 10425 ft | 265 kts | 137° |
| 2026-05-03 20:35 | 44.64126 | -116.09724 | 10356 ft | 247 kts | 101° |
| 2026-05-03 20:36 | 44.64187 | -116.07419 | 10254 ft | 233 kts | 65° |
| 2026-05-03 20:36 | 44.65149 | -116.05714 | 10147 ft | 220 kts | 28° |
| 2026-05-03 20:36 | 44.66580 | -116.05254 | 10095 ft | 208 kts | 353° |
| 2026-05-03 20:36 | 44.67972 | -116.05637 | 10032 ft | 202 kts | 346° |
| 2026-05-03 20:37 | 44.69306 | -116.06171 | 9955 ft | 194 kts | 343° |
| 2026-05-03 20:37 | 44.70548 | -116.06749 | 9807 ft | 181 kts | 342° |
| 2026-05-03 20:37 | 44.71754 | -116.07326 | 9475 ft | 193 kts | 341° |
| 2026-05-03 20:37 | 44.73012 | -116.07931 | 9052 ft | 191 kts | 341° |
| 2026-05-03 20:38 | 44.74265 | -116.08545 | 8587 ft | 191 kts | 342° |
| 2026-05-03 20:38 | 44.75516 | -116.09156 | 8252 ft | 186 kts | 343° |
| 2026-05-03 20:38 | 44.76729 | -116.09672 | 7722 ft | 178 kts | 347° |
| 2026-05-03 20:38 | 44.77938 | -116.09907 | 7326 ft | 173 kts | 358° |
| 2026-05-03 20:39 | 44.79113 | -116.09968 | 6934 ft | 164 kts | 358° |
| 2026-05-03 20:39 | 44.80190 | -116.09964 | 6767 ft | 144 kts | 357° |
| 2026-05-03 20:39 | 44.81136 | -116.09948 | 6568 ft | 127 kts | 359° |
| 2026-05-03 20:39 | 44.81989 | -116.09965 | 6468 ft | 120 kts | 359° |
| 2026-05-03 20:40 | 44.82824 | -116.10017 | 6271 ft | 121 kts | 358° |
| 2026-05-03 20:40 | 44.83676 | -116.10011 | 6051 ft | 129 kts | 0° |
| 2026-05-03 20:40 | 44.84555 | -116.10052 | 5901 ft | 127 kts | 360° |
| 2026-05-03 20:40 | 44.85424 | -116.10088 | 5698 ft | 125 kts | 359° |
| 2026-05-03 20:41 | 44.86294 | -116.10112 | 5501 ft | 125 kts | 0° |
| 2026-05-03 20:41 | 44.87141 | -116.10176 | 5273 ft | 118 kts | 2° |
| 2026-05-03 20:41 | 44.87962 | -116.10149 | 5085 ft | 118 kts | 359° |
| 2026-05-03 20:41 | 44.88732 | -116.10174 | 5034 ft | 96 kts | 359° |
| 2026-05-03 20:42 | 44.89232 | -116.10193 | 5030 ft | 52 kts | 358° |
| 2026-05-03 20:42 | 44.89514 | -116.10203 | 5030 ft | 32 kts | 359° |
| 2026-05-03 20:42 | 44.89659 | -116.10208 | 5032 ft | 9 kts | 359° |
| 2026-05-03 20:42 | 44.89682 | -116.10195 | 5031 ft | 3 kts | 96° |
| 2026-05-03 20:43 | 44.89681 | -116.10167 | 5033 ft | 3 kts | 91° |
| 2026-05-03 20:43 | 44.89681 | -116.10117 | 5031 ft | 6 kts | 90° |
| 2026-05-03 20:43 | 44.89681 | -116.10055 | 5030 ft | 6 kts | 90° |
| 2026-05-03 20:43 | 44.89657 | -116.10030 | 5030 ft | 5 kts | 179° |
| 2026-05-03 20:44 | 44.89630 | -116.10029 | 5027 ft | 3 kts | 179° |
| 2026-05-03 20:44 | 44.89612 | -116.10030 | 5030 ft | 2 kts | 190° |
| 2026-05-03 20:44 | 44.89599 | -116.10048 | 5027 ft | 4 kts | 231° |
| 2026-05-03 20:44 | 44.89583 | -116.10077 | 5028 ft | 3 kts | 234° |
| 2026-05-03 20:45 | 44.89591 | -116.10093 | 5031 ft | 3 kts | 4° |
| 2026-05-03 20:45 | 44.89604 | -116.10073 | 5028 ft | 2 kts | 56° |
| 2026-05-03 20:45 | 44.89607 | -116.10068 | 5027 ft | 0 kts | 56° |